createdAt,value
2023-02-22T00:00:59.842Z,101450.47
2023-02-22T00:03:28.984Z,101447.94
2023-02-22T00:05:59.691Z,101445.31
2023-02-22T00:08:31.934Z,101444.75
2023-02-22T00:11:04.669Z,101451.53
2023-02-22T00:13:31.819Z,101453.34
2023-02-22T00:16:02.691Z,101451.78
2023-02-22T00:18:30.100Z,101450.03
2023-02-22T00:21:01.623Z,101457.81
2023-02-22T00:23:30.689Z,101448.53
2023-02-22T00:25:59.732Z,101450.09
2023-02-22T00:28:27.449Z,101449.03
2023-02-22T00:30:55.673Z,101454.03
2023-02-22T00:33:23.302Z,101451.47
2023-02-22T00:35:50.381Z,101449.31
2023-02-22T00:38:19.039Z,101449.22
2023-02-22T00:40:46.151Z,101451.78
2023-02-22T00:43:14.027Z,101453.47
2023-02-22T00:45:41.306Z,101447.44
2023-02-22T00:48:09.735Z,101454.56
2023-02-22T00:50:37.350Z,101442.53
2023-02-22T00:53:05.375Z,101444.06
2023-02-22T00:55:35.504Z,101440.69
2023-02-22T00:58:04.405Z,101437.19
2023-02-22T01:00:37.054Z,101425.91
2023-02-22T01:03:05.996Z,101437.19
2023-02-22T01:05:33.567Z,101425.22
2023-02-22T01:08:02.312Z,101419.94
2023-02-22T01:10:31.184Z,101414.66
2023-02-22T01:13:00.263Z,101413.66
2023-02-22T01:15:30.739Z,101407.00
2023-02-22T01:17:59.679Z,101399.09
2023-02-22T01:20:29.420Z,101408.69
2023-02-22T01:22:59.315Z,101401.72
2023-02-22T01:25:31.031Z,101407.22
2023-02-22T01:28:00.683Z,101401.09
2023-02-22T01:30:34.556Z,101396.63
2023-02-22T01:33:03.584Z,101397.47
2023-02-22T01:35:32.861Z,101403.25
2023-02-22T01:37:59.969Z,101399.50
2023-02-22T01:40:32.973Z,101394.31
2023-02-22T01:43:03.292Z,101397.44
2023-02-22T01:45:30.467Z,101400.22
2023-02-22T01:48:09.156Z,101390.69
2023-02-22T01:50:55.998Z,101383.69
2023-02-22T01:53:41.531Z,101391.69
2023-02-22T01:56:09.668Z,101383.00
2023-02-22T01:58:41.159Z,101372.84
2023-02-22T02:01:09.380Z,101387.41
2023-02-22T02:03:39.928Z,101378.94
2023-02-22T02:06:12.712Z,101386.41
2023-02-22T02:09:05.035Z,101385.66
2023-02-22T02:11:32.520Z,101380.31
2023-02-22T02:14:00.168Z,101369.34
2023-02-22T02:16:39.024Z,101369.25
2023-02-22T02:19:18.169Z,101365.00
2023-02-22T02:22:16.782Z,101349.03
2023-02-22T02:25:05.116Z,101361.78
2023-02-22T02:27:50.777Z,101368.59
2023-02-22T02:30:39.086Z,101360.16
2023-02-22T02:33:34.755Z,101344.53
2023-02-22T02:36:05.382Z,101353.63
2023-02-22T02:38:36.218Z,101344.81
2023-02-22T02:41:21.691Z,101344.41
2023-02-22T02:43:59.473Z,101335.41
2023-02-22T02:46:39.218Z,101336.94
2023-02-22T02:49:12.310Z,101338.41
2023-02-22T02:51:44.313Z,101332.38
2023-02-22T02:54:13.447Z,101328.09
2023-02-22T02:56:42.781Z,101324.41
2023-02-22T02:59:29.966Z,101327.44
2023-02-22T03:02:12.781Z,101329.81
2023-02-22T03:04:39.745Z,101318.31
2023-02-22T03:07:38.494Z,101323.41
2023-02-22T03:10:27.100Z,101322.75
2023-02-22T03:12:54.084Z,101323.53
2023-02-22T03:15:45.933Z,101315.38
2023-02-22T03:18:26.136Z,101316.50
2023-02-22T03:21:01.059Z,101306.00
2023-02-22T03:23:35.418Z,101308.66
2023-02-22T03:26:12.178Z,101311.50
2023-02-22T03:28:41.927Z,101310.50
2023-02-22T03:31:18.075Z,101309.59
2023-02-22T03:33:54.406Z,101304.34
2023-02-22T03:36:34.606Z,101312.84
2023-02-22T03:39:04.253Z,101302.44
2023-02-22T03:41:34.617Z,101302.38
2023-02-22T03:44:12.201Z,101297.75
2023-02-22T03:46:41.006Z,101294.38
2023-02-22T03:49:45.609Z,101296.88
2023-02-22T03:52:13.080Z,101295.03
2023-02-22T03:54:40.783Z,101278.31
2023-02-22T03:57:17.623Z,101288.88
2023-02-22T03:59:46.005Z,101283.53
2023-02-22T04:02:13.041Z,101286.63
2023-02-22T04:04:40.155Z,101285.50
2023-02-22T04:07:07.226Z,101283.72
2023-02-22T04:09:34.404Z,101283.72
2023-02-22T04:12:01.518Z,101272.50
2023-02-22T04:14:29.557Z,101279.41
2023-02-22T04:16:58.298Z,101280.31
2023-02-22T04:19:25.437Z,101279.13
2023-02-22T04:21:53.159Z,101273.94
2023-02-22T04:24:20.218Z,101266.75
2023-02-22T04:26:47.340Z,101275.41
2023-02-22T04:29:14.417Z,101271.81
2023-02-22T04:31:41.610Z,101263.97
2023-02-22T04:34:08.843Z,101264.91
2023-02-22T04:36:35.952Z,101257.22
2023-02-22T04:39:03.590Z,101251.75
2023-02-22T04:41:31.523Z,101249.16
2023-02-22T04:43:58.719Z,101250.34
2023-02-22T04:46:26.167Z,101240.78
2023-02-22T04:48:54.344Z,101240.94
2023-02-22T04:51:21.462Z,101242.69
2023-02-22T04:53:48.551Z,101244.47
2023-02-22T04:56:18.534Z,101229.91
2023-02-22T04:58:45.602Z,101223.72
2023-02-22T05:01:12.711Z,101218.31
2023-02-22T05:03:40.048Z,101212.06
2023-02-22T05:06:07.580Z,101209.59
2023-02-22T05:08:34.957Z,101207.81
2023-02-22T05:11:02.055Z,101210.44
2023-02-22T05:13:29.172Z,101215.38
2023-02-22T05:15:58.662Z,101199.69
2023-02-22T05:18:26.357Z,101205.84
2023-02-22T05:20:54.050Z,101184.94
2023-02-22T05:23:21.129Z,101207.81
2023-02-22T05:25:48.364Z,101203.75
2023-02-22T05:28:17.272Z,101194.44
2023-02-22T05:30:44.480Z,101199.44
2023-02-22T05:33:11.749Z,101190.59
2023-02-22T05:35:38.884Z,101185.97
2023-02-22T05:38:06.582Z,101185.31
2023-02-22T05:40:33.965Z,101176.53
2023-02-22T05:43:02.213Z,101187.41
2023-02-22T05:45:29.865Z,101184.72
2023-02-22T05:47:58.142Z,101176.94
2023-02-22T05:50:26.267Z,101177.03
2023-02-22T05:52:54.192Z,101169.06
2023-02-22T05:55:23.580Z,101169.38
2023-02-22T05:57:52.396Z,101178.78
2023-02-22T06:00:26.515Z,101169.22
2023-02-22T06:03:03.403Z,101165.00
2023-02-22T06:05:31.110Z,101166.88
2023-02-22T06:07:59.049Z,101163.16
2023-02-22T06:10:28.207Z,101157.88
2023-02-22T06:12:57.384Z,101157.63
2023-02-22T06:15:26.657Z,101149.03
2023-02-22T06:17:56.304Z,101154.31
2023-02-22T06:20:26.420Z,101147.69
2023-02-22T06:22:55.364Z,101142.63
2023-02-22T06:25:28.244Z,101141.88
2023-02-22T06:27:56.190Z,101146.97
2023-02-22T06:30:24.953Z,101149.59
2023-02-22T06:32:52.046Z,101151.94
2023-02-22T06:35:19.371Z,101161.53
2023-02-22T06:37:46.944Z,101166.75
2023-02-22T06:40:15.691Z,101165.59
2023-02-22T06:42:43.232Z,101158.69
2023-02-22T06:45:11.041Z,101152.47
2023-02-22T06:47:42.205Z,101145.53
2023-02-22T06:50:21.016Z,101154.50
2023-02-22T06:52:48.264Z,101157.09
2023-02-22T06:55:24.934Z,101145.88
2023-02-22T06:57:52.483Z,101140.66
2023-02-22T07:00:21.600Z,101139.19
2023-02-22T07:02:48.937Z,101139.97
2023-02-22T07:05:18.746Z,101138.31
2023-02-22T07:07:47.251Z,101146.81
2023-02-22T07:10:29.697Z,101148.44
2023-02-22T07:12:57.540Z,101144.78
2023-02-22T07:15:28.101Z,101138.63
2023-02-22T07:17:56.443Z,101136.06
2023-02-22T07:20:25.031Z,101141.84
2023-02-22T07:22:52.723Z,101142.88
2023-02-22T07:25:20.654Z,101143.03
2023-02-22T07:27:48.165Z,101138.69
2023-02-22T07:30:18.623Z,101142.34
2023-02-22T07:32:47.096Z,101126.75
2023-02-22T07:35:18.191Z,101148.56
2023-02-22T07:37:45.934Z,101146.88
2023-02-22T07:40:13.038Z,101149.66
2023-02-22T07:42:56.397Z,101139.50
2023-02-22T07:45:26.598Z,101149.22
2023-02-22T07:47:53.945Z,101142.63
2023-02-22T07:50:23.437Z,101154.75
2023-02-22T07:52:53.191Z,101146.09
2023-02-22T07:55:22.871Z,101149.03
2023-02-22T07:57:51.799Z,101156.53
2023-02-22T08:00:41.121Z,101148.69
2023-02-22T08:03:10.262Z,101156.72
2023-02-22T08:05:39.216Z,101163.69
2023-02-22T08:08:07.694Z,101149.63
2023-02-22T08:10:35.718Z,101169.81
2023-02-22T08:13:04.453Z,101165.75
2023-02-22T08:15:35.007Z,101158.78
2023-02-22T08:18:03.905Z,101167.41
2023-02-22T08:20:31.927Z,101163.38
2023-02-22T08:22:59.061Z,101154.00
2023-02-22T08:25:28.724Z,101153.03
2023-02-22T08:28:01.275Z,101156.91
2023-02-22T08:30:30.769Z,101158.59
2023-02-22T08:32:58.585Z,101149.06
2023-02-22T08:35:27.778Z,101159.16
2023-02-22T08:37:59.220Z,101142.53
2023-02-22T08:40:30.964Z,101149.13
2023-02-22T08:42:58.450Z,101151.34
2023-02-22T08:45:26.704Z,101155.84
2023-02-22T08:47:54.112Z,101157.78
2023-02-22T08:50:28.151Z,101155.91
2023-02-22T08:53:00.791Z,101149.25
2023-02-22T08:55:32.582Z,101153.78
2023-02-22T08:58:02.832Z,101156.28
2023-02-22T09:00:32.980Z,101152.06
2023-02-22T09:03:04.384Z,101152.06
2023-02-22T09:05:31.999Z,101148.13
2023-02-22T09:08:00.448Z,101136.97
2023-02-22T09:10:31.679Z,101126.69
2023-02-22T09:13:00.845Z,101132.19
2023-02-22T09:15:28.653Z,101114.91
2023-02-22T09:17:56.516Z,101121.25
2023-02-22T09:20:25.231Z,101127.78
2023-02-22T09:22:53.383Z,101110.69
2023-02-22T09:25:20.990Z,101112.03
2023-02-22T09:27:50.157Z,101115.78
2023-02-22T09:30:24.625Z,101114.81
2023-02-22T09:32:58.038Z,101122.94
2023-02-22T09:35:27.826Z,101124.31
2023-02-22T09:38:00.070Z,101120.03
2023-02-22T09:40:30.832Z,101121.91
2023-02-22T09:43:00.946Z,101123.75
2023-02-22T09:45:36.760Z,101116.25
2023-02-22T09:48:20.844Z,101115.19
2023-02-22T09:50:53.039Z,101104.16
2023-02-22T09:53:30.878Z,101111.28
2023-02-22T09:56:06.967Z,101095.03
2023-02-22T09:58:47.472Z,101094.72
2023-02-22T10:01:39.397Z,101087.91
2023-02-22T10:04:12.478Z,101082.22
2023-02-22T10:06:44.145Z,101073.53
2023-02-22T10:09:11.539Z,101081.59
2023-02-22T10:11:58.168Z,101086.09
2023-02-22T10:14:33.275Z,101078.63
2023-02-22T10:17:32.692Z,101072.81
2023-02-22T10:20:18.850Z,101062.03
2023-02-22T10:23:04.514Z,101059.59
2023-02-22T10:25:36.350Z,101055.44
2023-02-22T10:28:24.320Z,101051.13
2023-02-22T10:31:02.224Z,101063.75
2023-02-22T10:33:33.734Z,101064.56
2023-02-22T10:36:00.925Z,101080.47
2023-02-22T10:38:34.652Z,101066.28
2023-02-22T10:41:10.492Z,101077.59
2023-02-22T10:43:38.771Z,101073.38
2023-02-22T10:46:08.351Z,101068.41
2023-02-22T10:48:38.411Z,101067.88
2023-02-22T10:51:08.583Z,101067.06
2023-02-22T10:53:38.355Z,101058.56
2023-02-22T10:56:21.493Z,101067.44
2023-02-22T10:59:02.322Z,101069.25
2023-02-22T11:01:32.937Z,101068.69
2023-02-22T11:04:13.286Z,101067.59
2023-02-22T11:06:46.925Z,101069.63
2023-02-22T11:09:22.547Z,101061.19
2023-02-22T11:12:06.900Z,101052.56
2023-02-22T11:14:34.061Z,101054.41
2023-02-22T11:17:06.439Z,101054.41
2023-02-22T11:19:34.301Z,101049.38
2023-02-22T11:22:14.966Z,101038.06
2023-02-22T11:24:57.650Z,101034.75
2023-02-22T11:27:31.645Z,101043.56
2023-02-22T11:30:12.009Z,101040.91
2023-02-22T11:32:54.636Z,101043.69
2023-02-22T11:35:53.686Z,101044.66
2023-02-22T11:38:24.255Z,101042.34
2023-02-22T11:41:18.256Z,101047.50
2023-02-22T11:43:48.475Z,101040.78
2023-02-22T11:46:30.241Z,101034.69
2023-02-22T11:49:02.427Z,101036.66
2023-02-22T11:52:09.671Z,101043.69
2023-02-22T11:54:58.745Z,101034.19
2023-02-22T11:57:38.943Z,101030.88
2023-02-22T12:00:24.635Z,101026.69
2023-02-22T12:03:33.425Z,101016.38
2023-02-22T12:06:24.725Z,101017.00
2023-02-22T12:09:00.021Z,101020.09
2023-02-22T12:11:45.091Z,101016.50
2023-02-22T12:14:36.605Z,101013.06
2023-02-22T12:17:26.559Z,101015.78
2023-02-22T12:20:01.245Z,101013.97
2023-02-22T12:22:39.205Z,101001.06
2023-02-22T12:25:22.745Z,101018.59
2023-02-22T12:27:58.782Z,101008.22
2023-02-22T12:30:41.072Z,101008.22
2023-02-22T12:33:25.164Z,101008.38
2023-02-22T12:35:54.435Z,101011.94
2023-02-22T12:38:44.381Z,101007.72
2023-02-22T12:41:31.603Z,101007.09
2023-02-22T12:44:06.499Z,101001.28
2023-02-22T12:46:43.635Z,101007.66
2023-02-22T12:49:42.725Z,101004.34
2023-02-22T12:52:42.214Z,100990.59
2023-02-22T12:55:31.646Z,100990.81
2023-02-22T12:58:10.110Z,100992.69
2023-02-22T13:00:57.770Z,100984.88
2023-02-22T13:03:24.879Z,100992.72
2023-02-22T13:06:01.279Z,100988.97
2023-02-22T13:08:37.683Z,100989.69
2023-02-22T13:11:19.690Z,100978.66
2023-02-22T13:13:56.627Z,100967.22
2023-02-22T13:16:52.504Z,100993.31
2023-02-22T13:19:26.691Z,100991.16
2023-02-22T13:22:32.661Z,100991.19
2023-02-22T13:24:59.732Z,100992.91
2023-02-22T13:27:38.765Z,100996.38
2023-02-22T13:30:13.582Z,100989.59
2023-02-22T13:32:51.466Z,100992.94
2023-02-22T13:35:50.507Z,100986.03
2023-02-22T13:38:17.540Z,100981.56
2023-02-22T13:41:23.213Z,100978.97
2023-02-22T13:44:09.034Z,100982.53
2023-02-22T13:46:54.899Z,100978.25
2023-02-22T13:49:39.797Z,100984.00
2023-02-22T13:52:12.140Z,100985.81
2023-02-22T13:54:46.871Z,100970.28
2023-02-22T13:57:51.469Z,100975.63
2023-02-22T14:00:21.259Z,100979.09
2023-02-22T14:03:02.125Z,100978.22
2023-02-22T14:05:49.681Z,100981.69
2023-02-22T14:08:19.707Z,100985.25
2023-02-22T14:10:52.928Z,100983.53
2023-02-22T14:13:27.834Z,100982.56
2023-02-22T14:15:57.940Z,100995.41
2023-02-22T14:18:30.313Z,100995.50
2023-02-22T14:21:13.112Z,100988.41
2023-02-22T14:23:45.328Z,100988.31
2023-02-22T14:26:21.220Z,100996.06
2023-02-22T14:29:09.603Z,100994.47
2023-02-22T14:31:51.575Z,100989.28
2023-02-22T14:34:39.917Z,100985.75
2023-02-22T14:37:33.037Z,101007.16
2023-02-22T14:40:12.810Z,101004.44
2023-02-22T14:42:48.601Z,101010.72
2023-02-22T14:45:28.545Z,101003.88
2023-02-22T14:48:11.623Z,101004.91
2023-02-22T14:50:41.763Z,101010.97
2023-02-22T14:53:44.181Z,101001.41
2023-02-22T14:56:26.782Z,100995.50
2023-02-22T14:58:58.715Z,100998.16
2023-02-22T15:01:44.352Z,100999.06
2023-02-22T15:04:28.140Z,100989.28
2023-02-22T15:06:59.947Z,100991.78
2023-02-22T15:09:34.859Z,101001.50
2023-02-22T15:12:05.010Z,101001.53
2023-02-22T15:14:44.583Z,100997.16
2023-02-22T15:17:22.804Z,100989.03
2023-02-22T15:19:50.620Z,100991.56
2023-02-22T15:22:25.177Z,100995.06
2023-02-22T15:25:01.650Z,100995.03
2023-02-22T15:27:29.408Z,100992.94
2023-02-22T15:29:59.751Z,100986.84
2023-02-22T15:32:49.870Z,100992.03
2023-02-22T15:35:30.738Z,101003.31
2023-02-22T15:38:04.071Z,101001.50
2023-02-22T15:40:33.233Z,101000.69
2023-02-22T15:43:08.848Z,101003.19
2023-02-22T15:45:44.997Z,100996.00
2023-02-22T15:48:12.617Z,101004.19
2023-02-22T15:50:39.735Z,101009.13
2023-02-22T15:53:29.417Z,101019.72
2023-02-22T15:56:01.036Z,101018.78
2023-02-22T15:58:30.034Z,101012.59
2023-02-22T16:01:03.737Z,101016.69
2023-02-22T16:03:48.273Z,101019.50
2023-02-22T16:06:35.692Z,101013.28
2023-02-22T16:09:28.901Z,101015.94
2023-02-22T16:12:22.954Z,101004.44
2023-02-22T16:14:52.286Z,101016.63
2023-02-22T16:17:26.697Z,101018.19
2023-02-22T16:19:54.018Z,101024.13
2023-02-22T16:22:35.828Z,101007.56
2023-02-22T16:25:17.926Z,101029.97
2023-02-22T16:28:12.804Z,101027.25
2023-02-22T16:30:40.260Z,101041.59
2023-02-22T16:33:13.777Z,101037.25
2023-02-22T16:35:43.275Z,101043.91
2023-02-22T16:38:17.199Z,101047.09
2023-02-22T16:40:54.570Z,101033.91
2023-02-22T16:43:24.285Z,101040.63
2023-02-22T16:45:53.055Z,101056.44
2023-02-22T16:48:23.119Z,101051.16
2023-02-22T16:50:52.078Z,101052.78
2023-02-22T16:53:21.908Z,101046.56
2023-02-22T16:55:50.733Z,101038.84
2023-02-22T16:58:19.162Z,101037.97
2023-02-22T17:00:46.268Z,101046.66
2023-02-22T17:03:18.327Z,101045.50
2023-02-22T17:05:45.454Z,101051.59
2023-02-22T17:08:13.054Z,101060.28
2023-02-22T17:10:40.134Z,101057.56
2023-02-22T17:13:21.869Z,101068.69
2023-02-22T17:15:50.195Z,101069.47
2023-02-22T17:18:22.701Z,101067.59
2023-02-22T17:20:51.681Z,101064.88
2023-02-22T17:23:19.763Z,101075.06
2023-02-22T17:25:54.091Z,101067.88
2023-02-22T17:28:23.665Z,101078.34
2023-02-22T17:30:52.269Z,101074.81
2023-02-22T17:33:27.958Z,101072.97
2023-02-22T17:35:57.913Z,101058.91
2023-02-22T17:38:28.969Z,101079.16
2023-02-22T17:40:59.206Z,101079.16
2023-02-22T17:43:28.159Z,101086.94
2023-02-22T17:45:55.698Z,101087.88
2023-02-22T17:48:24.561Z,101084.53
2023-02-22T17:50:52.531Z,101086.31
2023-02-22T17:53:24.582Z,101091.28
2023-02-22T17:55:51.965Z,101089.28
2023-02-22T17:58:19.248Z,101090.03
2023-02-22T18:00:49.137Z,101081.97
2023-02-22T18:03:25.075Z,101091.56
2023-02-22T18:05:56.215Z,101085.38
2023-02-22T18:08:25.539Z,101094.16
2023-02-22T18:10:56.841Z,101090.63
2023-02-22T18:13:27.884Z,101085.47
2023-02-22T18:16:00.875Z,101097.69
2023-02-22T18:18:28.695Z,101094.22
2023-02-22T18:20:59.694Z,101082.78
2023-02-22T18:23:30.475Z,101099.97
2023-02-22T18:26:10.575Z,101100.13
2023-02-22T18:28:39.193Z,101088.72
2023-02-22T18:31:08.648Z,101086.97
2023-02-22T18:33:35.811Z,101079.84
2023-02-22T18:36:03.039Z,101098.28
2023-02-22T18:38:30.134Z,101099.31
2023-02-22T18:41:06.211Z,101102.91
2023-02-22T18:43:36.260Z,101102.84
2023-02-22T18:46:09.590Z,101107.25
2023-02-22T18:48:37.754Z,101104.47
2023-02-22T18:51:10.340Z,101108.66
2023-02-22T18:53:38.852Z,101112.75
2023-02-22T18:56:08.398Z,101101.72
2023-02-22T18:58:36.245Z,101100.75
2023-02-22T19:01:03.817Z,101099.13
2023-02-22T19:03:32.768Z,101098.25
2023-02-22T19:06:04.007Z,101099.06
2023-02-22T19:08:32.732Z,101101.72
2023-02-22T19:11:05.517Z,101103.13
2023-02-22T19:13:33.872Z,101107.41
2023-02-22T19:16:07.167Z,101094.78
2023-02-22T19:18:34.380Z,101094.00
2023-02-22T19:21:03.594Z,101093.97
2023-02-22T19:23:34.526Z,101094.47
2023-02-22T19:26:09.284Z,101097.94
2023-02-22T19:28:36.274Z,101096.72
2023-02-22T19:31:33.754Z,101103.69
2023-02-22T19:34:02.015Z,101098.41
2023-02-22T19:36:29.320Z,101114.75
2023-02-22T19:39:01.583Z,101096.75
2023-02-22T19:41:29.622Z,101108.06
2023-02-22T19:43:58.553Z,101109.69
2023-02-22T19:46:26.860Z,101103.69
2023-02-22T19:48:55.354Z,101109.88
2023-02-22T19:51:25.756Z,101112.28
2023-02-22T19:53:56.758Z,101112.28
2023-02-22T19:56:28.222Z,101110.50
2023-02-22T19:58:58.301Z,101120.66
2023-02-22T20:01:29.072Z,101114.63
2023-02-22T20:03:59.899Z,101117.03
2023-02-22T20:06:34.995Z,101120.47
2023-02-22T20:09:02.704Z,101111.38
2023-02-22T20:11:29.950Z,101126.25
2023-02-22T20:13:58.026Z,101126.25
2023-02-22T20:16:25.261Z,101127.16
2023-02-22T20:18:54.424Z,101137.56
2023-02-22T20:21:28.156Z,101136.88
2023-02-22T20:23:59.258Z,101135.63
2023-02-22T20:26:29.407Z,101142.66
2023-02-22T20:28:58.037Z,101136.41
2023-02-22T20:31:25.287Z,101154.94
2023-02-22T20:33:54.201Z,101140.78
2023-02-22T20:36:24.989Z,101152.81
2023-02-22T20:38:54.779Z,101145.81
2023-02-22T20:41:33.071Z,101152.19
2023-02-22T20:44:02.292Z,101151.34
2023-02-22T20:46:36.109Z,101146.06
2023-02-22T20:49:07.454Z,101158.97
2023-02-22T20:51:35.370Z,101149.50
2023-02-22T20:54:02.941Z,101159.06
2023-02-22T20:56:32.722Z,101158.81
2023-02-22T20:59:02.329Z,101151.19
2023-02-22T21:01:29.977Z,101146.19
2023-02-22T21:04:05.011Z,101149.72
2023-02-22T21:06:35.313Z,101139.94
2023-02-22T21:09:07.123Z,101150.28
2023-02-22T21:11:34.940Z,101159.63
2023-02-22T21:14:02.960Z,101166.44
2023-02-22T21:16:35.910Z,101163.72
2023-02-22T21:19:05.990Z,101157.59
2023-02-22T21:21:34.658Z,101157.69
2023-02-22T21:24:01.901Z,101149.78
2023-02-22T21:26:34.415Z,101160.16
2023-02-22T21:29:05.052Z,101162.63
2023-02-22T21:31:34.025Z,101149.84
2023-02-22T21:34:02.026Z,101160.00
2023-02-22T21:36:29.142Z,101148.91
2023-02-22T21:38:59.913Z,101156.53
2023-02-22T21:41:31.046Z,101155.56
2023-02-22T21:43:59.254Z,101157.59
2023-02-22T21:46:29.140Z,101160.06
2023-02-22T21:48:58.701Z,101162.63
2023-02-22T21:51:31.728Z,101160.69
2023-02-22T21:54:04.172Z,101165.88
2023-02-22T21:56:34.981Z,101155.31
2023-02-22T21:59:05.132Z,101151.91
2023-02-22T22:01:38.820Z,101159.13
2023-02-22T22:04:05.708Z,101163.28
2023-02-22T22:06:34.684Z,101158.88
2023-02-22T22:09:04.893Z,101164.69
2023-02-22T22:11:31.990Z,101160.28
2023-02-22T22:14:00.324Z,101162.00
2023-02-22T22:16:33.027Z,101152.31
2023-02-22T22:19:00.111Z,101160.47
2023-02-22T22:21:28.681Z,101162.13
2023-02-22T22:23:57.052Z,101156.97
2023-02-22T22:26:25.424Z,101160.34
2023-02-22T22:28:56.966Z,101163.88
2023-02-22T22:31:26.315Z,101160.81
2023-02-22T22:33:57.129Z,101160.03
2023-02-22T22:36:28.452Z,101146.75
2023-02-22T22:38:57.847Z,101158.19
2023-02-22T22:41:28.131Z,101157.00
2023-02-22T22:43:56.702Z,101160.66
2023-02-22T22:46:23.919Z,101164.91
2023-02-22T22:48:51.068Z,101160.66
2023-02-22T22:51:20.671Z,101162.31
2023-02-22T22:53:49.599Z,101161.47
2023-02-22T22:56:19.221Z,101164.38
2023-02-22T22:58:51.968Z,101158.81
2023-02-22T23:01:27.972Z,101159.81
2023-02-22T23:04:01.322Z,101165.72
2023-02-22T23:06:33.322Z,101161.59
2023-02-22T23:09:11.394Z,101162.41
2023-02-22T23:11:46.540Z,101149.97
2023-02-22T23:14:19.528Z,101152.53
2023-02-22T23:16:48.396Z,101152.59
2023-02-22T23:19:16.563Z,101153.31
2023-02-22T23:21:43.964Z,101160.47
2023-02-22T23:24:17.678Z,101162.81
2023-02-22T23:26:51.237Z,101165.53
2023-02-22T23:29:20.866Z,101152.50
2023-02-22T23:31:49.683Z,101173.16
2023-02-22T23:34:18.712Z,101170.25
2023-02-22T23:36:46.777Z,101172.22
2023-02-22T23:39:15.604Z,101180.03
2023-02-22T23:41:42.746Z,101182.47
2023-02-22T23:44:17.947Z,101182.94
2023-02-22T23:46:48.248Z,101176.47
2023-02-22T23:49:20.586Z,101178.13
2023-02-22T23:51:48.538Z,101176.63
2023-02-22T23:54:21.674Z,101174.06
2023-02-22T23:56:58.114Z,101182.47
2023-02-22T23:59:26.907Z,101187.63
